sensor_id;sensor_type;location;lat;lon;timestamp;temperature;humidity
21744;DHT22;11034;48.556;9.342;2024-01-30T00:01:38;4.20;99.90
21744;DHT22;11034;48.556;9.342;2024-01-30T00:04:07;4.00;99.90
21744;DHT22;11034;48.556;9.342;2024-01-30T00:06:35;4.00;99.90
21744;DHT22;11034;48.556;9.342;2024-01-30T00:09:04;3.90;99.90
21744;DHT22;11034;48.556;9.342;2024-01-30T00:11:32;3.90;99.90
21744;DHT22;11034;48.556;9.342;2024-01-30T00:14:00;3.90;99.90
21744;DHT22;11034;48.556;9.342;2024-01-30T00:16:30;3.80;99.90
21744;DHT22;11034;48.556;9.342;2024-01-30T00:18:58;3.80;99.90
21744;DHT22;11034;48.556;9.342;2024-01-30T00:21:27;3.80;99.90
21744;DHT22;11034;48.556;9.342;2024-01-30T00:23:55;3.80;99.90
21744;DHT22;11034;48.556;9.342;2024-01-30T00:26:25;3.70;99.90
21744;DHT22;11034;48.556;9.342;2024-01-30T00:28:53;3.60;99.90
21744;DHT22;11034;48.556;9.342;2024-01-30T00:31:21;3.60;99.90
21744;DHT22;11034;48.556;9.342;2024-01-30T00:33:49;3.50;99.90
21744;DHT22;11034;48.556;9.342;2024-01-30T00:36:17;3.40;99.90
21744;DHT22;11034;48.556;9.342;2024-01-30T00:38:45;3.40;99.90
21744;DHT22;11034;48.556;9.342;2024-01-30T00:41:14;3.40;99.90
21744;DHT22;11034;48.556;9.342;2024-01-30T00:43:46;3.50;99.90
21744;DHT22;11034;48.556;9.342;2024-01-30T00:46:14;3.50;99.90
21744;DHT22;11034;48.556;9.342;2024-01-30T00:48:42;3.50;99.90
21744;DHT22;11034;48.556;9.342;2024-01-30T00:51:11;3.40;99.90
21744;DHT22;11034;48.556;9.342;2024-01-30T00:53:39;3.40;99.90
21744;DHT22;11034;48.556;9.342;2024-01-30T00:56:08;3.40;99.90
21744;DHT22;11034;48.556;9.342;2024-01-30T00:58:38;3.70;99.90
21744;DHT22;11034;48.556;9.342;2024-01-30T01:01:08;3.70;99.90
21744;DHT22;11034;48.556;9.342;2024-01-30T01:03:36;3.70;99.90
21744;DHT22;11034;48.556;9.342;2024-01-30T01:06:04;3.70;99.90
21744;DHT22;11034;48.556;9.342;2024-01-30T01:08:32;3.70;99.90
21744;DHT22;11034;48.556;9.342;2024-01-30T01:11:00;3.70;99.90
21744;DHT22;11034;48.556;9.342;2024-01-30T01:13:30;3.60;99.90
21744;DHT22;11034;48.556;9.342;2024-01-30T01:15:58;3.70;99.90
21744;DHT22;11034;48.556;9.342;2024-01-30T01:18:28;3.60;99.90
21744;DHT22;11034;48.556;9.342;2024-01-30T01:20:56;3.60;99.90
21744;DHT22;11034;48.556;9.342;2024-01-30T01:23:24;3.50;99.90
21744;DHT22;11034;48.556;9.342;2024-01-30T01:25:52;3.40;99.90
21744;DHT22;11034;48.556;9.342;2024-01-30T01:28:24;3.30;99.90
21744;DHT22;11034;48.556;9.342;2024-01-30T01:30:52;3.30;99.90
21744;DHT22;11034;48.556;9.342;2024-01-30T01:33:25;3.30;99.90
21744;DHT22;11034;48.556;9.342;2024-01-30T01:35:55;3.30;99.90
21744;DHT22;11034;48.556;9.342;2024-01-30T01:38:23;3.30;99.90
21744;DHT22;11034;48.556;9.342;2024-01-30T01:40:51;3.40;99.90
21744;DHT22;11034;48.556;9.342;2024-01-30T01:43:20;3.60;99.90
21744;DHT22;11034;48.556;9.342;2024-01-30T01:45:48;3.60;99.90
21744;DHT22;11034;48.556;9.342;2024-01-30T01:48:16;3.70;99.90
21744;DHT22;11034;48.556;9.342;2024-01-30T01:50:45;3.80;99.90
21744;DHT22;11034;48.556;9.342;2024-01-30T01:53:15;4.00;99.90
21744;DHT22;11034;48.556;9.342;2024-01-30T01:55:43;4.20;99.90
21744;DHT22;11034;48.556;9.342;2024-01-30T01:58:12;4.50;99.90
21744;DHT22;11034;48.556;9.342;2024-01-30T02:00:40;4.80;99.90
21744;DHT22;11034;48.556;9.342;2024-01-30T02:03:10;4.80;99.90
21744;DHT22;11034;48.556;9.342;2024-01-30T02:05:39;5.00;99.90
21744;DHT22;11034;48.556;9.342;2024-01-30T02:08:09;5.00;99.90
21744;DHT22;11034;48.556;9.342;2024-01-30T02:10:38;5.10;99.90
21744;DHT22;11034;48.556;9.342;2024-01-30T02:13:06;5.10;99.90
21744;DHT22;11034;48.556;9.342;2024-01-30T02:15:35;5.10;99.90
21744;DHT22;11034;48.556;9.342;2024-01-30T02:18:03;5.10;99.90
21744;DHT22;11034;48.556;9.342;2024-01-30T02:20:31;5.00;99.90
21744;DHT22;11034;48.556;9.342;2024-01-30T02:23:04;4.90;99.90
21744;DHT22;11034;48.556;9.342;2024-01-30T02:25:37;4.80;99.90
21744;DHT22;11034;48.556;9.342;2024-01-30T02:28:06;4.80;99.90
21744;DHT22;11034;48.556;9.342;2024-01-30T02:30:34;5.30;99.90
21744;DHT22;11034;48.556;9.342;2024-01-30T02:33:02;5.80;99.90
21744;DHT22;11034;48.556;9.342;2024-01-30T02:35:30;6.10;99.90
21744;DHT22;11034;48.556;9.342;2024-01-30T02:37:59;6.10;99.90
21744;DHT22;11034;48.556;9.342;2024-01-30T02:40:28;5.80;99.90
21744;DHT22;11034;48.556;9.342;2024-01-30T02:42:57;5.50;99.90
21744;DHT22;11034;48.556;9.342;2024-01-30T02:45:25;5.30;99.90
21744;DHT22;11034;48.556;9.342;2024-01-30T02:47:53;5.10;99.90
21744;DHT22;11034;48.556;9.342;2024-01-30T02:50:21;5.00;99.90
21744;DHT22;11034;48.556;9.342;2024-01-30T02:52:50;5.00;99.90
21744;DHT22;11034;48.556;9.342;2024-01-30T02:55:18;5.10;99.90
21744;DHT22;11034;48.556;9.342;2024-01-30T02:57:47;5.70;99.90
21744;DHT22;11034;48.556;9.342;2024-01-30T03:00:16;6.10;99.90
21744;DHT22;11034;48.556;9.342;2024-01-30T03:02:44;6.20;99.90
21744;DHT22;11034;48.556;9.342;2024-01-30T03:05:13;6.70;99.90
21744;DHT22;11034;48.556;9.342;2024-01-30T03:07:41;7.00;99.90
21744;DHT22;11034;48.556;9.342;2024-01-30T03:10:09;7.10;99.90
21744;DHT22;11034;48.556;9.342;2024-01-30T03:12:38;7.20;99.90
21744;DHT22;11034;48.556;9.342;2024-01-30T03:15:08;7.10;99.90
21744;DHT22;11034;48.556;9.342;2024-01-30T03:17:37;6.90;99.90
21744;DHT22;11034;48.556;9.342;2024-01-30T03:20:06;6.50;99.90
21744;DHT22;11034;48.556;9.342;2024-01-30T03:22:34;6.30;99.90
21744;DHT22;11034;48.556;9.342;2024-01-30T03:25:03;6.10;99.90
21744;DHT22;11034;48.556;9.342;2024-01-30T03:27:32;5.90;99.90
21744;DHT22;11034;48.556;9.342;2024-01-30T03:30:00;5.60;99.90
21744;DHT22;11034;48.556;9.342;2024-01-30T03:32:30;5.30;99.90
21744;DHT22;11034;48.556;9.342;2024-01-30T03:34:58;5.00;99.90
21744;DHT22;11034;48.556;9.342;2024-01-30T03:37:26;4.70;99.90
21744;DHT22;11034;48.556;9.342;2024-01-30T03:39:54;4.60;99.90
21744;DHT22;11034;48.556;9.342;2024-01-30T03:42:22;4.40;99.90
21744;DHT22;11034;48.556;9.342;2024-01-30T03:44:50;4.30;99.90
21744;DHT22;11034;48.556;9.342;2024-01-30T03:47:20;4.20;99.90
21744;DHT22;11034;48.556;9.342;2024-01-30T03:49:50;4.10;99.90
21744;DHT22;11034;48.556;9.342;2024-01-30T03:52:18;4.00;99.90
21744;DHT22;11034;48.556;9.342;2024-01-30T03:54:46;4.00;99.90
21744;DHT22;11034;48.556;9.342;2024-01-30T03:57:14;3.90;99.90
21744;DHT22;11034;48.556;9.342;2024-01-30T03:59:42;4.10;99.90
21744;DHT22;11034;48.556;9.342;2024-01-30T04:02:10;4.10;99.90
21744;DHT22;11034;48.556;9.342;2024-01-30T04:04:39;4.10;99.90
21744;DHT22;11034;48.556;9.342;2024-01-30T04:07:08;4.10;99.90
21744;DHT22;11034;48.556;9.342;2024-01-30T04:09:38;4.00;99.90
21744;DHT22;11034;48.556;9.342;2024-01-30T04:12:06;3.90;99.90
21744;DHT22;11034;48.556;9.342;2024-01-30T04:14:35;3.80;99.90
21744;DHT22;11034;48.556;9.342;2024-01-30T04:17:03;3.70;99.90
21744;DHT22;11034;48.556;9.342;2024-01-30T04:19:31;3.60;99.90
21744;DHT22;11034;48.556;9.342;2024-01-30T04:21:59;3.50;99.90
21744;DHT22;11034;48.556;9.342;2024-01-30T04:24:29;3.40;99.90
21744;DHT22;11034;48.556;9.342;2024-01-30T04:26:57;3.30;99.90
21744;DHT22;11034;48.556;9.342;2024-01-30T04:29:25;3.20;99.90
21744;DHT22;11034;48.556;9.342;2024-01-30T04:31:53;3.00;99.90
21744;DHT22;11034;48.556;9.342;2024-01-30T04:34:21;2.90;99.90
21744;DHT22;11034;48.556;9.342;2024-01-30T04:36:50;2.80;99.90
21744;DHT22;11034;48.556;9.342;2024-01-30T04:39:18;2.80;99.90
21744;DHT22;11034;48.556;9.342;2024-01-30T04:41:48;2.80;99.90
21744;DHT22;11034;48.556;9.342;2024-01-30T04:44:16;2.80;99.90
21744;DHT22;11034;48.556;9.342;2024-01-30T04:46:44;2.80;99.90
21744;DHT22;11034;48.556;9.342;2024-01-30T04:49:12;3.00;99.90
21744;DHT22;11034;48.556;9.342;2024-01-30T04:51:40;3.00;99.90
21744;DHT22;11034;48.556;9.342;2024-01-30T04:54:08;2.90;99.90
21744;DHT22;11034;48.556;9.342;2024-01-30T04:56:36;3.00;99.90
21744;DHT22;11034;48.556;9.342;2024-01-30T04:59:07;3.10;99.90
21744;DHT22;11034;48.556;9.342;2024-01-30T05:01:36;3.20;99.90
21744;DHT22;11034;48.556;9.342;2024-01-30T05:04:06;3.40;99.90
21744;DHT22;11034;48.556;9.342;2024-01-30T05:06:37;3.40;99.90
21744;DHT22;11034;48.556;9.342;2024-01-30T05:09:05;3.70;99.90
21744;DHT22;11034;48.556;9.342;2024-01-30T05:11:37;4.20;99.90
21744;DHT22;11034;48.556;9.342;2024-01-30T05:14:07;4.70;99.90
21744;DHT22;11034;48.556;9.342;2024-01-30T05:16:35;5.00;99.90
21744;DHT22;11034;48.556;9.342;2024-01-30T05:19:03;4.90;99.90
21744;DHT22;11034;48.556;9.342;2024-01-30T05:21:32;4.50;99.90
21744;DHT22;11034;48.556;9.342;2024-01-30T05:24:00;4.20;99.90
21744;DHT22;11034;48.556;9.342;2024-01-30T05:26:28;3.90;99.90
21744;DHT22;11034;48.556;9.342;2024-01-30T05:28:56;3.80;99.90
21744;DHT22;11034;48.556;9.342;2024-01-30T05:31:26;3.90;99.90
21744;DHT22;11034;48.556;9.342;2024-01-30T05:33:54;4.20;99.90
21744;DHT22;11034;48.556;9.342;2024-01-30T05:36:23;4.50;99.90
21744;DHT22;11034;48.556;9.342;2024-01-30T05:38:51;5.10;99.90
21744;DHT22;11034;48.556;9.342;2024-01-30T05:41:19;5.50;99.90
21744;DHT22;11034;48.556;9.342;2024-01-30T05:43:47;6.00;99.90
21744;DHT22;11034;48.556;9.342;2024-01-30T05:46:15;6.30;99.90
21744;DHT22;11034;48.556;9.342;2024-01-30T05:48:46;6.70;99.90
21744;DHT22;11034;48.556;9.342;2024-01-30T05:51:14;6.90;99.90
21744;DHT22;11034;48.556;9.342;2024-01-30T05:53:43;7.00;99.90
21744;DHT22;11034;48.556;9.342;2024-01-30T05:56:11;7.00;99.90
21744;DHT22;11034;48.556;9.342;2024-01-30T05:58:39;7.10;99.90
21744;DHT22;11034;48.556;9.342;2024-01-30T06:01:07;7.10;99.90
21744;DHT22;11034;48.556;9.342;2024-01-30T06:03:36;7.30;99.90
21744;DHT22;11034;48.556;9.342;2024-01-30T06:06:07;7.10;99.90
21744;DHT22;11034;48.556;9.342;2024-01-30T06:08:35;7.10;99.90
21744;DHT22;11034;48.556;9.342;2024-01-30T06:11:03;7.20;99.90
21744;DHT22;11034;48.556;9.342;2024-01-30T06:13:31;7.00;99.90
21744;DHT22;11034;48.556;9.342;2024-01-30T06:16:00;6.30;99.90
21744;DHT22;11034;48.556;9.342;2024-01-30T06:18:28;5.70;99.90
21744;DHT22;11034;48.556;9.342;2024-01-30T06:20:58;5.00;99.90
21744;DHT22;11034;48.556;9.342;2024-01-30T06:23:27;4.50;99.90
21744;DHT22;11034;48.556;9.342;2024-01-30T06:25:55;4.40;99.90
21744;DHT22;11034;48.556;9.342;2024-01-30T06:28:23;4.50;99.90
21744;DHT22;11034;48.556;9.342;2024-01-30T06:30:51;4.80;99.90
21744;DHT22;11034;48.556;9.342;2024-01-30T06:33:19;5.20;99.90
21744;DHT22;11034;48.556;9.342;2024-01-30T06:35:47;5.60;99.90
21744;DHT22;11034;48.556;9.342;2024-01-30T06:38:16;5.80;99.90
21744;DHT22;11034;48.556;9.342;2024-01-30T06:40:45;5.60;99.90
21744;DHT22;11034;48.556;9.342;2024-01-30T06:43:13;5.10;99.90
21744;DHT22;11034;48.556;9.342;2024-01-30T06:45:41;4.60;99.90
21744;DHT22;11034;48.556;9.342;2024-01-30T06:48:10;4.30;99.90
21744;DHT22;11034;48.556;9.342;2024-01-30T06:50:38;4.30;99.90
21744;DHT22;11034;48.556;9.342;2024-01-30T06:53:06;4.60;99.90
21744;DHT22;11034;48.556;9.342;2024-01-30T06:55:34;4.80;99.90
21744;DHT22;11034;48.556;9.342;2024-01-30T06:58:04;5.00;99.90
21744;DHT22;11034;48.556;9.342;2024-01-30T07:00:32;5.40;99.90
21744;DHT22;11034;48.556;9.342;2024-01-30T07:03:00;5.70;99.90
21744;DHT22;11034;48.556;9.342;2024-01-30T07:05:28;5.80;99.90
21744;DHT22;11034;48.556;9.342;2024-01-30T07:07:57;5.80;99.90
21744;DHT22;11034;48.556;9.342;2024-01-30T07:10:25;5.90;99.90
21744;DHT22;11034;48.556;9.342;2024-01-30T07:12:53;5.90;99.90
21744;DHT22;11034;48.556;9.342;2024-01-30T07:15:22;6.00;99.90
21744;DHT22;11034;48.556;9.342;2024-01-30T07:17:51;6.10;99.90
21744;DHT22;11034;48.556;9.342;2024-01-30T07:20:19;6.00;99.90
21744;DHT22;11034;48.556;9.342;2024-01-30T07:22:47;6.00;99.90
21744;DHT22;11034;48.556;9.342;2024-01-30T07:25:15;6.10;99.90
21744;DHT22;11034;48.556;9.342;2024-01-30T07:27:44;6.30;99.90
21744;DHT22;11034;48.556;9.342;2024-01-30T07:30:12;6.50;99.90
21744;DHT22;11034;48.556;9.342;2024-01-30T07:32:42;6.80;99.90
21744;DHT22;11034;48.556;9.342;2024-01-30T07:35:10;7.30;99.90
21744;DHT22;11034;48.556;9.342;2024-01-30T07:37:38;7.70;99.90
21744;DHT22;11034;48.556;9.342;2024-01-30T07:40:07;8.10;99.90
21744;DHT22;11034;48.556;9.342;2024-01-30T07:42:35;8.30;99.90
21744;DHT22;11034;48.556;9.342;2024-01-30T07:45:04;8.40;99.90
21744;DHT22;11034;48.556;9.342;2024-01-30T07:47:32;8.40;99.90
21744;DHT22;11034;48.556;9.342;2024-01-30T07:50:02;8.40;99.90
21744;DHT22;11034;48.556;9.342;2024-01-30T07:52:31;8.30;99.90
21744;DHT22;11034;48.556;9.342;2024-01-30T07:54:59;8.30;99.90
21744;DHT22;11034;48.556;9.342;2024-01-30T07:57:26;8.20;99.90
21744;DHT22;11034;48.556;9.342;2024-01-30T07:59:54;8.20;99.90
21744;DHT22;11034;48.556;9.342;2024-01-30T08:02:24;8.10;99.90
21744;DHT22;11034;48.556;9.342;2024-01-30T08:04:52;8.10;99.90
21744;DHT22;11034;48.556;9.342;2024-01-30T08:07:21;8.10;99.90
21744;DHT22;11034;48.556;9.342;2024-01-30T08:09:49;8.10;99.90
21744;DHT22;11034;48.556;9.342;2024-01-30T08:12:17;8.30;99.90
21744;DHT22;11034;48.556;9.342;2024-01-30T08:14:45;8.50;99.90
21744;DHT22;11034;48.556;9.342;2024-01-30T08:17:14;8.70;99.90
21744;DHT22;11034;48.556;9.342;2024-01-30T08:19:42;8.90;99.90
21744;DHT22;11034;48.556;9.342;2024-01-30T08:22:12;9.10;99.90
21744;DHT22;11034;48.556;9.342;2024-01-30T08:24:42;9.30;99.90
21744;DHT22;11034;48.556;9.342;2024-01-30T08:27:10;9.40;99.90
21744;DHT22;11034;48.556;9.342;2024-01-30T08:29:38;9.50;99.90
21744;DHT22;11034;48.556;9.342;2024-01-30T08:32:07;9.60;99.90
21744;DHT22;11034;48.556;9.342;2024-01-30T08:34:35;9.60;99.90
21744;DHT22;11034;48.556;9.342;2024-01-30T08:37:03;9.70;99.90
21744;DHT22;11034;48.556;9.342;2024-01-30T08:39:31;9.80;99.90
21744;DHT22;11034;48.556;9.342;2024-01-30T08:42:01;10.00;99.90
21744;DHT22;11034;48.556;9.342;2024-01-30T08:44:29;10.10;99.90
21744;DHT22;11034;48.556;9.342;2024-01-30T08:46:57;10.20;99.90
21744;DHT22;11034;48.556;9.342;2024-01-30T08:49:26;10.20;99.90
21744;DHT22;11034;48.556;9.342;2024-01-30T08:51:54;10.30;99.90
21744;DHT22;11034;48.556;9.342;2024-01-30T08:54:23;10.40;99.90
21744;DHT22;11034;48.556;9.342;2024-01-30T08:56:51;10.50;99.90
21744;DHT22;11034;48.556;9.342;2024-01-30T08:59:21;10.50;99.90
21744;DHT22;11034;48.556;9.342;2024-01-30T09:01:49;10.60;99.90
21744;DHT22;11034;48.556;9.342;2024-01-30T09:04:33;10.70;99.90
21744;DHT22;11034;48.556;9.342;2024-01-30T09:07:01;10.70;99.90
21744;DHT22;11034;48.556;9.342;2024-01-30T09:09:30;10.60;99.90
21744;DHT22;11034;48.556;9.342;2024-01-30T09:11:58;10.60;99.90
21744;DHT22;11034;48.556;9.342;2024-01-30T09:14:32;10.50;99.90
21744;DHT22;11034;48.556;9.342;2024-01-30T09:17:00;10.60;99.90
21744;DHT22;11034;48.556;9.342;2024-01-30T09:19:30;10.60;99.90
21744;DHT22;11034;48.556;9.342;2024-01-30T09:21:58;10.60;99.90
21744;DHT22;11034;48.556;9.342;2024-01-30T09:24:27;10.70;99.90
21744;DHT22;11034;48.556;9.342;2024-01-30T09:26:55;10.70;99.90
21744;DHT22;11034;48.556;9.342;2024-01-30T09:29:23;10.60;99.90
21744;DHT22;11034;48.556;9.342;2024-01-30T09:31:52;10.60;99.90
21744;DHT22;11034;48.556;9.342;2024-01-30T09:34:20;10.60;99.90
21744;DHT22;11034;48.556;9.342;2024-01-30T09:36:49;10.60;99.90
21744;DHT22;11034;48.556;9.342;2024-01-30T09:39:17;10.60;99.90
21744;DHT22;11034;48.556;9.342;2024-01-30T09:41:49;10.70;99.90
21744;DHT22;11034;48.556;9.342;2024-01-30T09:44:20;10.70;99.90
21744;DHT22;11034;48.556;9.342;2024-01-30T09:46:49;10.80;99.90
21744;DHT22;11034;48.556;9.342;2024-01-30T09:49:20;10.90;99.90
21744;DHT22;11034;48.556;9.342;2024-01-30T09:51:52;10.90;99.90
21744;DHT22;11034;48.556;9.342;2024-01-30T09:54:21;11.00;99.90
21744;DHT22;11034;48.556;9.342;2024-01-30T09:56:49;11.10;99.90
21744;DHT22;11034;48.556;9.342;2024-01-30T09:59:17;11.10;99.90
21744;DHT22;11034;48.556;9.342;2024-01-30T10:01:46;11.00;99.90
21744;DHT22;11034;48.556;9.342;2024-01-30T10:04:14;11.00;99.90
21744;DHT22;11034;48.556;9.342;2024-01-30T10:06:44;11.00;99.90
21744;DHT22;11034;48.556;9.342;2024-01-30T10:09:12;10.90;99.90
21744;DHT22;11034;48.556;9.342;2024-01-30T10:11:40;10.90;99.90
21744;DHT22;11034;48.556;9.342;2024-01-30T10:14:09;10.90;99.90
21744;DHT22;11034;48.556;9.342;2024-01-30T10:16:37;10.90;99.90
21744;DHT22;11034;48.556;9.342;2024-01-30T10:19:06;10.90;99.90
21744;DHT22;11034;48.556;9.342;2024-01-30T10:21:35;10.90;99.90
21744;DHT22;11034;48.556;9.342;2024-01-30T10:24:05;10.90;99.90
21744;DHT22;11034;48.556;9.342;2024-01-30T10:26:33;11.10;99.90
21744;DHT22;11034;48.556;9.342;2024-01-30T10:29:02;11.10;99.90
21744;DHT22;11034;48.556;9.342;2024-01-30T10:31:30;11.10;99.90
21744;DHT22;11034;48.556;9.342;2024-01-30T10:33:58;11.10;99.90
21744;DHT22;11034;48.556;9.342;2024-01-30T10:36:43;11.00;99.90
21744;DHT22;11034;48.556;9.342;2024-01-30T10:39:17;11.00;99.90
21744;DHT22;11034;48.556;9.342;2024-01-30T10:41:47;11.00;99.90
21744;DHT22;11034;48.556;9.342;2024-01-30T10:44:22;11.10;99.90
21744;DHT22;11034;48.556;9.342;2024-01-30T10:46:56;11.10;99.90
21744;DHT22;11034;48.556;9.342;2024-01-30T10:49:28;11.10;99.90
21744;DHT22;11034;48.556;9.342;2024-01-30T10:51:58;11.20;99.90
21744;DHT22;11034;48.556;9.342;2024-01-30T10:54:29;11.30;99.90
21744;DHT22;11034;48.556;9.342;2024-01-30T10:57:01;11.30;99.90
21744;DHT22;11034;48.556;9.342;2024-01-30T10:59:31;11.20;99.90
21744;DHT22;11034;48.556;9.342;2024-01-30T11:02:00;11.30;99.90
21744;DHT22;11034;48.556;9.342;2024-01-30T11:04:36;11.30;99.90
21744;DHT22;11034;48.556;9.342;2024-01-30T11:07:14;11.30;99.90
21744;DHT22;11034;48.556;9.342;2024-01-30T11:09:50;11.40;99.90
21744;DHT22;11034;48.556;9.342;2024-01-30T11:12:22;11.40;99.90
21744;DHT22;11034;48.556;9.342;2024-01-30T11:15:02;11.40;99.90
21744;DHT22;11034;48.556;9.342;2024-01-30T11:17:50;11.50;99.90
21744;DHT22;11034;48.556;9.342;2024-01-30T11:20:20;11.50;99.90
21744;DHT22;11034;48.556;9.342;2024-01-30T11:22:51;11.60;99.90
21744;DHT22;11034;48.556;9.342;2024-01-30T11:25:22;11.70;99.90
21744;DHT22;11034;48.556;9.342;2024-01-30T11:27:51;11.90;99.90
21744;DHT22;11034;48.556;9.342;2024-01-30T11:30:23;11.80;99.90
21744;DHT22;11034;48.556;9.342;2024-01-30T11:33:01;11.90;99.90
21744;DHT22;11034;48.556;9.342;2024-01-30T11:35:33;11.80;99.90
21744;DHT22;11034;48.556;9.342;2024-01-30T11:38:02;11.70;99.90
21744;DHT22;11034;48.556;9.342;2024-01-30T11:40:33;11.70;99.90
21744;DHT22;11034;48.556;9.342;2024-01-30T11:43:03;11.80;99.90
21744;DHT22;11034;48.556;9.342;2024-01-30T11:45:33;11.70;99.90
21744;DHT22;11034;48.556;9.342;2024-01-30T11:48:02;11.70;99.90
21744;DHT22;11034;48.556;9.342;2024-01-30T11:50:32;11.70;99.90
21744;DHT22;11034;48.556;9.342;2024-01-30T11:53:01;11.70;99.90
21744;DHT22;11034;48.556;9.342;2024-01-30T11:55:31;11.70;99.90
21744;DHT22;11034;48.556;9.342;2024-01-30T11:58:01;11.80;99.90
21744;DHT22;11034;48.556;9.342;2024-01-30T12:00:31;11.70;99.90
21744;DHT22;11034;48.556;9.342;2024-01-30T12:03:01;11.70;99.90
21744;DHT22;11034;48.556;9.342;2024-01-30T12:05:31;11.70;99.90
21744;DHT22;11034;48.556;9.342;2024-01-30T12:07:59;11.80;99.90
21744;DHT22;11034;48.556;9.342;2024-01-30T12:10:28;11.70;99.90
21744;DHT22;11034;48.556;9.342;2024-01-30T12:13:00;11.80;99.90
21744;DHT22;11034;48.556;9.342;2024-01-30T12:15:29;11.80;99.90
21744;DHT22;11034;48.556;9.342;2024-01-30T12:18:04;11.80;99.90
21744;DHT22;11034;48.556;9.342;2024-01-30T12:20:34;11.90;99.90
21744;DHT22;11034;48.556;9.342;2024-01-30T12:23:02;12.00;99.90
21744;DHT22;11034;48.556;9.342;2024-01-30T12:25:31;12.00;99.90
21744;DHT22;11034;48.556;9.342;2024-01-30T12:28:01;12.00;99.90
21744;DHT22;11034;48.556;9.342;2024-01-30T12:30:30;12.00;99.90
21744;DHT22;11034;48.556;9.342;2024-01-30T12:32:58;11.90;99.90
21744;DHT22;11034;48.556;9.342;2024-01-30T12:35:26;12.00;99.90
21744;DHT22;11034;48.556;9.342;2024-01-30T12:37:58;12.00;99.90
21744;DHT22;11034;48.556;9.342;2024-01-30T12:40:27;12.00;99.90
21744;DHT22;11034;48.556;9.342;2024-01-30T12:42:56;11.90;99.90
21744;DHT22;11034;48.556;9.342;2024-01-30T12:45:26;11.90;99.90
21744;DHT22;11034;48.556;9.342;2024-01-30T12:47:53;11.80;99.90
21744;DHT22;11034;48.556;9.342;2024-01-30T12:50:22;11.70;99.90
21744;DHT22;11034;48.556;9.342;2024-01-30T12:52:50;11.70;99.90
21744;DHT22;11034;48.556;9.342;2024-01-30T12:55:18;11.70;99.90
21744;DHT22;11034;48.556;9.342;2024-01-30T12:57:46;11.80;99.90
21744;DHT22;11034;48.556;9.342;2024-01-30T13:00:15;11.80;99.90
21744;DHT22;11034;48.556;9.342;2024-01-30T13:02:46;11.80;99.90
21744;DHT22;11034;48.556;9.342;2024-01-30T13:05:15;11.80;99.90
21744;DHT22;11034;48.556;9.342;2024-01-30T13:07:44;11.80;99.90
21744;DHT22;11034;48.556;9.342;2024-01-30T13:10:12;11.90;99.90
21744;DHT22;11034;48.556;9.342;2024-01-30T13:12:40;11.90;99.90
21744;DHT22;11034;48.556;9.342;2024-01-30T13:15:09;12.00;99.90
21744;DHT22;11034;48.556;9.342;2024-01-30T13:17:38;12.10;99.90
21744;DHT22;11034;48.556;9.342;2024-01-30T13:20:10;12.10;99.90
21744;DHT22;11034;48.556;9.342;2024-01-30T13:22:38;12.00;99.90
21744;DHT22;11034;48.556;9.342;2024-01-30T13:25:07;12.00;99.90
21744;DHT22;11034;48.556;9.342;2024-01-30T13:27:36;12.00;99.90
21744;DHT22;11034;48.556;9.342;2024-01-30T13:30:07;12.00;99.90
21744;DHT22;11034;48.556;9.342;2024-01-30T13:32:37;12.00;99.90
21744;DHT22;11034;48.556;9.342;2024-01-30T13:35:05;12.00;99.90
21744;DHT22;11034;48.556;9.342;2024-01-30T13:37:35;12.00;99.90
21744;DHT22;11034;48.556;9.342;2024-01-30T13:40:05;11.90;99.90
21744;DHT22;11034;48.556;9.342;2024-01-30T13:42:40;11.90;99.90
21744;DHT22;11034;48.556;9.342;2024-01-30T13:45:08;11.80;99.90
21744;DHT22;11034;48.556;9.342;2024-01-30T13:47:38;11.70;99.90
21744;DHT22;11034;48.556;9.342;2024-01-30T13:50:06;11.70;99.90
21744;DHT22;11034;48.556;9.342;2024-01-30T13:52:38;11.70;99.90
21744;DHT22;11034;48.556;9.342;2024-01-30T13:55:11;11.60;99.90
21744;DHT22;11034;48.556;9.342;2024-01-30T13:57:40;11.50;99.90
21744;DHT22;11034;48.556;9.342;2024-01-30T14:00:09;11.50;99.90
21744;DHT22;11034;48.556;9.342;2024-01-30T14:02:37;11.50;99.90
21744;DHT22;11034;48.556;9.342;2024-01-30T14:05:07;11.50;99.90
21744;DHT22;11034;48.556;9.342;2024-01-30T14:07:37;11.50;99.90
21744;DHT22;11034;48.556;9.342;2024-01-30T14:10:07;11.50;99.90
21744;DHT22;11034;48.556;9.342;2024-01-30T14:12:41;11.50;99.90
21744;DHT22;11034;48.556;9.342;2024-01-30T14:15:10;11.40;99.90
21744;DHT22;11034;48.556;9.342;2024-01-30T14:17:53;11.40;99.90
21744;DHT22;11034;48.556;9.342;2024-01-30T14:20:22;11.30;99.90
21744;DHT22;11034;48.556;9.342;2024-01-30T14:22:52;11.30;99.90
21744;DHT22;11034;48.556;9.342;2024-01-30T14:25:22;11.30;99.90
21744;DHT22;11034;48.556;9.342;2024-01-30T14:27:51;11.30;99.90
21744;DHT22;11034;48.556;9.342;2024-01-30T14:30:19;11.30;99.90
21744;DHT22;11034;48.556;9.342;2024-01-30T14:32:47;11.30;99.90
21744;DHT22;11034;48.556;9.342;2024-01-30T14:35:16;11.40;99.90
21744;DHT22;11034;48.556;9.342;2024-01-30T14:37:44;11.40;99.90
21744;DHT22;11034;48.556;9.342;2024-01-30T14:40:14;11.40;99.90
21744;DHT22;11034;48.556;9.342;2024-01-30T14:42:42;11.40;99.90
21744;DHT22;11034;48.556;9.342;2024-01-30T14:45:10;11.40;99.90
21744;DHT22;11034;48.556;9.342;2024-01-30T14:47:38;11.40;99.90
21744;DHT22;11034;48.556;9.342;2024-01-30T14:50:08;11.50;99.90
21744;DHT22;11034;48.556;9.342;2024-01-30T14:52:37;11.40;99.90
21744;DHT22;11034;48.556;9.342;2024-01-30T14:55:07;11.40;99.90
21744;DHT22;11034;48.556;9.342;2024-01-30T14:57:37;11.40;99.90
21744;DHT22;11034;48.556;9.342;2024-01-30T15:00:06;11.50;99.90
21744;DHT22;11034;48.556;9.342;2024-01-30T15:02:35;11.40;99.90
21744;DHT22;11034;48.556;9.342;2024-01-30T15:05:04;11.40;99.90
21744;DHT22;11034;48.556;9.342;2024-01-30T15:07:32;11.30;99.90
21744;DHT22;11034;48.556;9.342;2024-01-30T15:10:07;11.30;99.90
21744;DHT22;11034;48.556;9.342;2024-01-30T15:12:38;11.20;99.90
21744;DHT22;11034;48.556;9.342;2024-01-30T15:15:07;11.20;99.90
21744;DHT22;11034;48.556;9.342;2024-01-30T15:17:37;11.20;99.90
21744;DHT22;11034;48.556;9.342;2024-01-30T15:20:06;11.10;99.90
21744;DHT22;11034;48.556;9.342;2024-01-30T15:22:35;11.10;99.90
21744;DHT22;11034;48.556;9.342;2024-01-30T15:25:04;11.00;99.90
21744;DHT22;11034;48.556;9.342;2024-01-30T15:27:33;10.90;99.90
21744;DHT22;11034;48.556;9.342;2024-01-30T15:30:02;10.90;99.90
21744;DHT22;11034;48.556;9.342;2024-01-30T15:32:31;10.80;99.90
21744;DHT22;11034;48.556;9.342;2024-01-30T15:35:00;10.70;99.90
21744;DHT22;11034;48.556;9.342;2024-01-30T15:37:31;10.70;99.90
21744;DHT22;11034;48.556;9.342;2024-01-30T15:40:00;10.60;99.90
21744;DHT22;11034;48.556;9.342;2024-01-30T15:42:29;10.60;99.90
21744;DHT22;11034;48.556;9.342;2024-01-30T15:44:57;10.50;99.90
21744;DHT22;11034;48.556;9.342;2024-01-30T15:47:27;10.50;99.90
21744;DHT22;11034;48.556;9.342;2024-01-30T15:49:55;10.50;99.90
21744;DHT22;11034;48.556;9.342;2024-01-30T15:52:23;10.40;99.90